KDTL/DTL METAR and TAF weather

Enter ICAO airport designator
Station Type Date Time Source
KDTL METAR 2019/08/25 02:20 UTC NOAA

KDTL 250220Z AUTO 15011KT 10SM CLR 18/13 A3006 RMK AO2


Station Type Date Time Source
KDTL Decoded METAR 2019/08/25 02:20 UTC NOAA

Station name not available
Aug 24, 2019 - 10:20 PM EDT / 2019.08.25 0220 UTC
Wind: from the SSE (150 degrees) at 13 MPH (11 KT):0
Visibility: 10 mile(s):0
Sky conditions: clear
Temperature: 64 F (18 C)
Dew Point: 55 F (13 C)
Relative Humidity: 72%
Pressure (altimeter): 30.06 in. Hg (1017 hPa)
ob: KDTL 250220Z AUTO 15011KT 10SM CLR 18/13 A3006 RMK AO2
cycle: 2

Station Type Date Time Source
KDTL TAF UTC NOAA

Error!

Example: see airport list